Time;durP1;ratioP1;P1;durP2;ratioP2;P2;SDS_P1;SDS_P2;PMS_P1;PMS_P2;Temp;Humidity;BMP_temperature;BMP_pressure;BME280_temperature;BME280_humidity;BME280_pressure;Samples;Min_cycle;Max_cycle;Signal;HPM_P1;HPM_P2
2023/12/26 00:00:06;;;;;;;2.70;1.30;;;;;;;-147.86;100.00;-17609.17;105980;1250;73826;-59
2023/12/26 00:02:38;;;;;;;1.50;0.80;;;;;;;-147.86;100.00;-17609.17;105977;1254;65864;-57
2023/12/26 00:05:06;;;;;;;1.40;1.00;;;;;;;-147.86;100.00;-17609.17;105958;1252;72576;-58
2023/12/26 00:07:33;;;;;;;1.30;0.80;;;;;;;-147.86;100.00;-17609.17;106016;1254;61731;-57
2023/12/26 00:10:00;;;;;;;3.40;0.90;;;;;;;-147.86;100.00;-17609.17;105892;1252;60524;-56
2023/12/26 00:12:27;;;;;;;1.40;0.80;;;;;;;-147.86;100.00;-17609.17;105919;1252;73785;-56
2023/12/26 00:14:54;;;;;;;1.90;1.10;;;;;;;-147.86;100.00;-17609.17;105941;1255;64665;-56
2023/12/26 00:17:21;;;;;;;2.80;1.10;;;;;;;-147.86;100.00;-17609.17;105983;1251;73135;-58
2023/12/26 00:19:49;;;;;;;0.80;0.80;;;;;;;-147.86;100.00;-17609.17;105974;1254;61812;-56
2023/12/26 00:22:16;;;;;;;2.20;0.80;;;;;;;-147.86;100.00;-17609.17;105987;1251;60437;-56
2023/12/26 00:24:43;;;;;;;4.30;1.40;;;;;;;-147.86;100.00;-17609.17;105989;1254;73848;-55
2023/12/26 00:27:10;;;;;;;1.70;0.80;;;;;;;-147.86;100.00;-17609.17;105971;1254;64588;-58
2023/12/26 00:29:37;;;;;;;1.40;0.70;;;;;;;-147.86;100.00;-17609.17;105915;1251;72660;-54
2023/12/26 00:32:05;;;;;;;2.00;0.70;;;;;;;-147.86;100.00;-17609.17;105967;1251;61709;-56
2023/12/26 00:34:31;;;;;;;1.30;0.70;;;;;;;-147.86;100.00;-17609.17;105964;1255;60491;-56
2023/12/26 00:36:58;;;;;;;2.30;0.90;;;;;;;-147.86;100.00;-17609.17;105937;1256;73641;-53
2023/12/26 00:39:25;;;;;;;1.40;0.80;;;;;;;-147.86;100.00;-17609.17;106040;1254;64641;-57
2023/12/26 00:41:52;;;;;;;6.50;1.00;;;;;;;-147.86;100.00;-17609.17;105965;1251;72589;-55
2023/12/26 00:44:19;;;;;;;3.70;0.80;;;;;;;-147.86;100.00;-17609.17;105972;1251;60326;-57
2023/12/26 00:46:46;;;;;;;1.00;0.60;;;;;;;-147.86;100.00;-17609.17;106018;1251;60533;-55
2023/12/26 00:49:13;;;;;;;3.20;1.30;;;;;;;-147.86;100.00;-17609.17;105725;1251;73878;-58
2023/12/26 00:51:40;;;;;;;3.30;1.10;;;;;;;-147.86;100.00;-17609.17;105938;1254;64587;-56
2023/12/26 00:54:07;;;;;;;2.10;0.80;;;;;;;-147.86;100.00;-17609.17;105978;1251;72616;-53
2023/12/26 00:56:34;;;;;;;8.30;0.90;;;;;;;-147.86;100.00;-17609.17;105883;1256;61139;-57
2023/12/26 00:59:01;;;;;;;4.60;1.00;;;;;;;-147.86;100.00;-17609.17;106017;1254;60525;-57
2023/12/26 01:01:28;;;;;;;3.80;1.00;;;;;;;-147.86;100.00;-17609.17;105710;1250;73838;-56
2023/12/26 01:03:55;;;;;;;4.00;1.20;;;;;;;-147.86;100.00;-17609.17;105942;1254;64587;-56
2023/12/26 01:06:22;;;;;;;4.00;0.80;;;;;;;-147.86;100.00;-17609.17;105949;1251;72430;-56
2023/12/26 01:08:49;;;;;;;3.00;0.90;;;;;;;-147.86;100.00;-17609.17;105923;1257;60524;-55
2023/12/26 01:11:17;;;;;;;0.90;0.90;;;;;;;-147.86;100.00;-17609.17;105965;1251;60287;-57
2023/12/26 01:13:45;;;;;;;8.20;1.50;;;;;;;-147.86;100.00;-17609.17;105985;1251;73667;-53
2023/12/26 01:16:12;;;;;;;4.90;1.90;;;;;;;-147.86;100.00;-17609.17;106052;1254;64644;-53
2023/12/26 01:18:39;;;;;;;2.10;1.20;;;;;;;-147.86;100.00;-17609.17;105968;1251;73007;-56
2023/12/26 01:21:08;;;;;;;9.70;2.10;;;;;;;-147.86;100.00;-17609.17;105910;1257;60973;-56
2023/12/26 01:23:35;;;;;;;7.20;1.80;;;;;;;-147.86;100.00;-17609.17;106043;1257;60472;-53
2023/12/26 01:26:02;;;;;;;8.10;1.20;;;;;;;-147.86;100.00;-17609.17;105943;1251;73798;-55
2023/12/26 01:28:29;;;;;;;6.50;1.70;;;;;;;-147.86;100.00;-17609.17;106027;1254;64350;-59
2023/12/26 01:30:57;;;;;;;4.70;1.60;;;;;;;-147.86;100.00;-17609.17;105987;1251;72643;-54
2023/12/26 01:33:25;;;;;;;2.70;1.00;;;;;;;-147.86;100.00;-17609.17;105987;1250;61119;-56
2023/12/26 01:35:52;;;;;;;3.30;1.30;;;;;;;-147.86;100.00;-17609.17;105977;1251;60402;-59
2023/12/26 01:38:20;;;;;;;4.80;1.30;;;;;;;-147.86;100.00;-17609.17;105922;1251;73812;-56
2023/12/26 01:40:47;;;;;;;5.90;1.30;;;;;;;-147.86;100.00;-17609.17;106041;1251;64772;-59
2023/12/26 01:43:14;;;;;;;7.40;1.20;;;;;;;-147.86;100.00;-17609.17;105961;1251;72518;-55
2023/12/26 01:45:41;;;;;;;3.90;1.10;;;;;;;-147.86;100.00;-17609.17;105952;1251;60523;-55
2023/12/26 01:48:08;;;;;;;6.90;1.20;;;;;;;-147.86;100.00;-17609.17;105998;1251;60437;-56
2023/12/26 01:50:35;;;;;;;4.60;1.30;;;;;;;-147.86;100.00;-17609.17;106004;1254;72863;-52
2023/12/26 01:53:03;;;;;;;6.00;1.20;;;;;;;-147.86;100.00;-17609.17;105705;1259;63578;-52
2023/12/26 01:55:30;;;;;;;4.50;0.90;;;;;;;-147.86;100.00;-17609.17;105933;1251;72464;-59
2023/12/26 01:57:57;;;;;;;6.60;1.30;;;;;;;-147.86;100.00;-17609.17;105913;1257;61264;-57
2023/12/26 02:00:24;;;;;;;2.60;1.10;;;;;;;-147.86;100.00;-17609.17;105971;1251;60543;-54
2023/12/26 02:02:54;;;;;;;4.80;1.30;;;;;;;-147.86;100.00;-17609.17;105997;1254;72813;-54
2023/12/26 02:05:21;;;;;;;4.30;1.30;;;;;;;-147.86;100.00;-17609.17;105907;1257;64736;-55
2023/12/26 02:07:48;;;;;;;7.20;1.20;;;;;;;-147.86;100.00;-17609.17;105950;1251;72686;-55
2023/12/26 02:10:15;;;;;;;10.80;1.90;;;;;;;-147.86;100.00;-17609.17;105980;1256;61239;-52
2023/12/26 02:12:43;;;;;;;4.60;1.90;;;;;;;-147.86;100.00;-17609.17;105973;1251;60664;-59
2023/12/26 02:15:10;;;;;;;5.60;1.80;;;;;;;-147.86;100.00;-17609.17;105966;1251;73754;-56
2023/12/26 02:17:37;;;;;;;9.00;2.60;;;;;;;-147.86;100.00;-17609.17;106002;1251;64632;-54
2023/12/26 02:20:05;;;;;;;7.80;3.20;;;;;;;-147.86;100.00;-17609.17;105938;1252;72577;-57
2023/12/26 02:22:32;;;;;;;4.90;1.50;;;;;;;-147.86;100.00;-17609.17;105994;1251;60642;-55
2023/12/26 02:24:59;;;;;;;7.20;2.40;;;;;;;-147.86;100.00;-17609.17;105977;1251;60540;-56
2023/12/26 02:27:31;;;;;;;9.00;3.10;;;;;;;-147.86;100.00;-17609.17;106043;1251;74773;-54
2023/12/26 02:29:58;;;;;;;10.40;2.80;;;;;;;-147.86;100.00;-17609.17;105963;1256;64585;-56
2023/12/26 02:32:28;;;;;;;4.60;2.20;;;;;;;-147.86;100.00;-17609.17;105958;1251;72667;-57
2023/12/26 02:34:55;;;;;;;4.10;1.40;;;;;;;-147.86;100.00;-17609.17;105921;1256;61139;-54
2023/12/26 02:37:22;;;;;;;8.50;2.00;;;;;;;-147.86;100.00;-17609.17;106022;1254;60370;-54
2023/12/26 02:39:50;;;;;;;3.80;1.30;;;;;;;-147.86;100.00;-17609.17;106021;1254;73921;-53
2023/12/26 02:42:18;;;;;;;5.60;2.00;;;;;;;-147.86;100.00;-17609.17;105989;1254;64694;-58
2023/12/26 02:44:45;;;;;;;6.50;1.90;;;;;;;-147.86;100.00;-17609.17;106044;1251;72778;-59
2023/12/26 02:47:13;;;;;;;5.70;2.00;;;;;;;-147.86;100.00;-17609.17;105984;1254;61259;-53
2023/12/26 02:49:40;;;;;;;8.20;2.50;;;;;;;-147.86;100.00;-17609.17;105994;1251;60497;-55
2023/12/26 02:52:07;;;;;;;7.50;2.30;;;;;;;-147.86;100.00;-17609.17;105983;1251;73935;-53
2023/12/26 02:54:35;;;;;;;4.00;2.10;;;;;;;-147.86;100.00;-17609.17;106004;1254;64660;-56
2023/12/26 02:57:02;;;;;;;3.80;1.60;;;;;;;-147.86;100.00;-17609.17;105920;1251;72616;-56
2023/12/26 02:59:29;;;;;;;10.30;1.80;;;;;;;-147.86;100.00;-17609.17;106018;1257;60419;-57
2023/12/26 03:01:57;;;;;;;5.60;1.60;;;;;;;-147.86;100.00;-17609.17;105997;1251;61808;-56
2023/12/26 03:04:26;;;;;;;4.10;1.60;;;;;;;-147.86;100.00;-17609.17;105989;1250;73799;-56
2023/12/26 03:06:53;;;;;;;4.30;1.20;;;;;;;-147.86;100.00;-17609.17;105980;1251;64565;-57
2023/12/26 03:09:20;;;;;;;6.40;1.50;;;;;;;-147.86;100.00;-17609.17;105928;1251;72685;-52
2023/12/26 03:11:47;;;;;;;5.00;1.30;;;;;;;-147.86;100.00;-17609.17;105957;1254;60379;-52
2023/12/26 03:14:15;;;;;;;19.70;2.20;;;;;;;-147.86;100.00;-17609.17;106027;1251;60437;-55
2023/12/26 03:16:42;;;;;;;4.70;1.50;;;;;;;-147.86;100.00;-17609.17;106018;1251;73667;-56
2023/12/26 03:19:09;;;;;;;6.60;2.10;;;;;;;-147.86;100.00;-17609.17;105976;1254;64697;-56
2023/12/26 03:21:37;;;;;;;10.80;3.30;;;;;;;-147.86;100.00;-17609.17;105995;1254;72609;-54
2023/12/26 03:24:04;;;;;;;8.20;2.90;;;;;;;-147.86;100.00;-17609.17;105874;1253;60642;-55
2023/12/26 03:26:32;;;;;;;10.20;3.70;;;;;;;-147.86;100.00;-17609.17;105949;1251;60426;-54
2023/12/26 03:28:59;;;;;;;11.40;3.60;;;;;;;-147.86;100.00;-17609.17;105966;1254;73888;-54
2023/12/26 03:31:26;;;;;;;9.00;3.10;;;;;;;-147.86;100.00;-17609.17;105929;1254;64654;-55
2023/12/26 03:33:55;;;;;;;13.40;4.30;;;;;;;-147.86;100.00;-17609.17;105909;1256;72639;-53
2023/12/26 03:36:22;;;;;;;14.00;4.50;;;;;;;-147.86;100.00;-17609.17;105951;1254;60527;-53
2023/12/26 03:38:48;;;;;;;9.90;4.30;;;;;;;-147.86;100.00;-17609.17;105936;1254;60521;-56
2023/12/26 03:41:16;;;;;;;9.80;2.90;;;;;;;-147.86;100.00;-17609.17;105980;1250;73800;-54
2023/12/26 03:43:44;;;;;;;6.50;2.70;;;;;;;-147.86;100.00;-17609.17;105978;1254;64727;-53
2023/12/26 03:46:12;;;;;;;6.40;1.80;;;;;;;-147.86;100.00;-17609.17;105980;1254;72641;-58
2023/12/26 03:48:38;;;;;;;5.20;1.80;;;;;;;-147.86;100.00;-17609.17;105985;1254;60348;-56
2023/12/26 03:51:06;;;;;;;5.60;1.80;;;;;;;-147.86;100.00;-17609.17;105909;1251;60523;-58
2023/12/26 03:53:33;;;;;;;10.00;1.60;;;;;;;-147.86;100.00;-17609.17;106004;1251;74736;-51
2023/12/26 03:56:00;;;;;;;11.70;1.70;;;;;;;-147.86;100.00;-17609.17;105969;1254;64537;-54
2023/12/26 03:58:28;;;;;;;3.60;1.30;;;;;;;-147.86;100.00;-17609.17;105980;1251;72647;-54
2023/12/26 04:00:55;;;;;;;5.60;1.80;;;;;;;-147.86;100.00;-17609.17;105940;1256;60367;-56
2023/12/26 04:03:23;;;;;;;5.40;1.40;;;;;;;-147.86;100.00;-17609.17;105987;1251;60527;-55
2023/12/26 04:05:50;;;;;;;5.10;1.30;;;;;;;-147.86;100.00;-17609.17;105913;1252;73617;-53
2023/12/26 04:08:17;;;;;;;6.00;1.70;;;;;;;-147.86;100.00;-17609.17;105978;1254;64608;-55
2023/12/26 04:10:45;;;;;;;3.80;1.40;;;;;;;-147.86;100.00;-17609.17;105999;1251;72664;-53
2023/12/26 04:13:13;;;;;;;5.20;1.60;;;;;;;-147.86;100.00;-17609.17;105958;1254;60663;-53
2023/12/26 04:15:40;;;;;;;4.80;1.60;;;;;;;-147.86;100.00;-17609.17;105992;1251;60497;-53
2023/12/26 04:18:07;;;;;;;10.80;2.20;;;;;;;-147.86;100.00;-17609.17;105955;1251;72610;-51
2023/12/26 04:20:34;;;;;;;7.30;1.50;;;;;;;-147.86;100.00;-17609.17;105925;1256;64455;-56
2023/12/26 04:23:01;;;;;;;6.70;1.80;;;;;;;-147.86;100.00;-17609.17;106010;1251;71492;-58
2023/12/26 04:25:28;;;;;;;5.10;1.60;;;;;;;-147.86;100.00;-17609.17;105965;1250;60934;-56
2023/12/26 04:27:55;;;;;;;6.20;1.80;;;;;;;-147.86;100.00;-17609.17;105859;1251;60501;-53
2023/12/26 04:30:22;;;;;;;4.50;1.50;;;;;;;-147.86;100.00;-17609.17;105964;1251;73823;-54
2023/12/26 04:32:49;;;;;;;3.00;1.40;;;;;;;-147.86;100.00;-17609.17;105885;1256;64403;-53
2023/12/26 04:35:17;;;;;;;4.60;1.80;;;;;;;-147.86;100.00;-17609.17;105932;1251;72424;-54
2023/12/26 04:37:44;;;;;;;3.70;1.60;;;;;;;-147.86;100.00;-17609.17;105972;1254;60967;-58
2023/12/26 04:40:11;;;;;;;6.30;1.60;;;;;;;-147.86;100.00;-17609.17;105940;1251;60482;-54
2023/12/26 04:42:38;;;;;;;6.30;1.20;;;;;;;-147.86;100.00;-17609.17;105754;1256;298774;-56
2023/12/26 04:45:06;;;;;;;9.30;1.80;;;;;;;-147.86;100.00;-17609.17;106013;1254;64591;-53
2023/12/26 04:48:51;;;;;;;5.80;1.50;;;;;;;-147.86;100.00;-17609.17;102651;1292;603366;-50
2023/12/26 04:51:20;;;;;;;6.10;1.40;;;;;;;-147.86;100.00;-17609.17;105093;1269;61188;-55
2023/12/26 04:53:49;;;;;;;6.20;1.80;;;;;;;-147.86;100.00;-17609.17;105089;1264;59343;-55
2023/12/26 04:56:17;;;;;;;4.20;1.40;;;;;;;-147.86;100.00;-17609.17;105160;1264;71904;-58
2023/12/26 04:58:48;;;;;;;3.20;1.50;;;;;;;-147.86;100.00;-17609.17;105242;1266;64722;-57
2023/12/26 05:01:17;;;;;;;6.10;1.70;;;;;;;-147.86;100.00;-17609.17;105067;1264;184813;-56
2023/12/26 05:03:44;;;;;;;4.60;1.70;;;;;;;-147.86;100.00;-17609.17;105212;1259;59750;-58
2023/12/26 05:06:13;;;;;;;5.30;1.80;;;;;;;-147.86;100.00;-17609.17;105109;1263;59213;-56
2023/12/26 05:08:40;;;;;;;5.30;1.50;;;;;;;-147.86;100.00;-17609.17;105251;1258;70872;-62
2023/12/26 05:11:07;;;;;;;8.70;1.90;;;;;;;-147.86;100.00;-17609.17;105588;1262;64523;-56
2023/12/26 05:13:34;;;;;;;5.70;1.80;;;;;;;-147.86;100.00;-17609.17;105601;1258;72728;-57
2023/12/26 05:16:04;;;;;;;8.90;2.40;;;;;;;-147.86;100.00;-17609.17;105614;1262;60811;-58
2023/12/26 05:18:31;;;;;;;4.10;1.60;;;;;;;-147.86;100.00;-17609.17;105378;1257;60060;-52
2023/12/26 05:21:00;;;;;;;5.10;1.60;;;;;;;-147.86;100.00;-17609.17;105434;1258;72993;-53
2023/12/26 05:23:28;;;;;;;3.80;1.30;;;;;;;-147.86;100.00;-17609.17;105610;1262;64569;-53
2023/12/26 05:25:58;;;;;;;3.70;1.40;;;;;;;-147.86;100.00;-17609.17;105655;1254;72546;-55
2023/12/26 05:28:38;;;;;;;5.20;1.60;;;;;;;-147.86;100.00;-17609.17;105730;1260;59544;-57
2023/12/26 05:31:05;;;;;;;2.10;1.30;;;;;;;-147.86;100.00;-17609.17;105666;1254;60226;-55
2023/12/26 05:33:33;;;;;;;7.10;1.70;;;;;;;-147.86;100.00;-17609.17;105654;1255;72019;-53
2023/12/26 05:36:02;;;;;;;5.80;1.40;;;;;;;-147.86;100.00;-17609.17;105746;1258;63551;-55
2023/12/26 05:38:30;;;;;;;4.00;1.50;;;;;;;-147.86;100.00;-17609.17;105739;1254;71667;-58
2023/12/26 05:40:59;;;;;;;5.30;2.00;;;;;;;-147.86;100.00;-17609.17;105647;1259;60465;-56
2023/12/26 05:43:26;;;;;;;5.00;1.60;;;;;;;-147.86;100.00;-17609.17;105703;1255;61009;-56
2023/12/26 05:45:53;;;;;;;5.00;1.70;;;;;;;-147.86;100.00;-17609.17;105677;1255;72985;-58
2023/12/26 05:48:20;;;;;;;6.00;1.90;;;;;;;-147.86;100.00;-17609.17;105693;1260;64541;-55
2023/12/26 05:50:47;;;;;;;8.30;1.80;;;;;;;-147.86;100.00;-17609.17;105692;1260;72565;-52
2023/12/26 05:53:15;;;;;;;7.40;2.10;;;;;;;-147.86;100.00;-17609.17;105744;1260;59736;-55
2023/12/26 05:55:42;;;;;;;4.50;1.50;;;;;;;-147.86;100.00;-17609.17;105687;1254;60299;-53
2023/12/26 05:58:09;;;;;;;8.50;2.00;;;;;;;-147.86;100.00;-17609.17;105667;1255;72971;-55
2023/12/26 06:00:37;;;;;;;4.90;1.70;;;;;;;-147.86;100.00;-17609.17;105733;1258;64802;-58
2023/12/26 06:03:04;;;;;;;6.80;1.80;;;;;;;-147.86;100.00;-17609.17;105659;1254;72503;-57
2023/12/26 06:05:32;;;;;;;5.60;1.90;;;;;;;-147.86;100.00;-17609.17;105696;1260;59605;-53
2023/12/26 06:07:59;;;;;;;7.00;2.00;;;;;;;-147.86;100.00;-17609.17;105679;1254;60021;-56
2023/12/26 06:10:27;;;;;;;8.90;1.90;;;;;;;-147.86;100.00;-17609.17;105638;1254;73015;-55
2023/12/26 06:12:54;;;;;;;12.80;2.00;;;;;;;-147.86;100.00;-17609.17;105662;1260;64587;-58
2023/12/26 06:15:21;;;;;;;7.00;1.70;;;;;;;-147.86;100.00;-17609.17;105668;1260;72615;-53
2023/12/26 06:17:49;;;;;;;5.80;1.80;;;;;;;-147.86;100.00;-17609.17;105686;1260;59595;-57
2023/12/26 06:20:21;;;;;;;9.60;1.80;;;;;;;-147.86;100.00;-17609.17;105710;1254;60295;-56
2023/12/26 06:22:48;;;;;;;10.60;2.00;;;;;;;-147.86;100.00;-17609.17;105656;1255;72956;-53
2023/12/26 06:25:15;;;;;;;4.00;1.60;;;;;;;-147.86;100.00;-17609.17;105647;1260;64692;-56
2023/12/26 06:27:42;;;;;;;4.70;1.90;;;;;;;-147.86;100.00;-17609.17;105688;1259;72499;-54
2023/12/26 06:30:10;;;;;;;8.80;2.00;;;;;;;-147.86;100.00;-17609.17;105662;1259;59707;-52
2023/12/26 06:32:37;;;;;;;4.90;1.90;;;;;;;-147.86;100.00;-17609.17;105768;1254;60208;-56
2023/12/26 06:35:05;;;;;;;6.80;1.80;;;;;;;-147.86;100.00;-17609.17;105669;1254;73088;-55
2023/12/26 06:37:32;;;;;;;8.10;2.30;;;;;;;-147.86;100.00;-17609.17;105660;1254;64513;-57
2023/12/26 06:39:59;;;;;;;7.90;2.10;;;;;;;-147.86;100.00;-17609.17;105670;1260;72791;-55
2023/12/26 06:42:26;;;;;;;7.10;2.30;;;;;;;-147.86;100.00;-17609.17;105741;1260;59763;-55
2023/12/26 06:44:54;;;;;;;10.20;2.70;;;;;;;-147.86;100.00;-17609.17;105707;1255;60149;-56
2023/12/26 06:47:20;;;;;;;6.70;2.50;;;;;;;-147.86;100.00;-17609.17;105660;1255;72812;-55
2023/12/26 06:49:49;;;;;;;9.20;2.60;;;;;;;-147.86;100.00;-17609.17;105675;1259;64458;-57
2023/12/26 06:52:17;;;;;;;10.10;2.80;;;;;;;-147.86;100.00;-17609.17;105676;1260;72779;-55
2023/12/26 06:54:44;;;;;;;7.70;2.70;;;;;;;-147.86;100.00;-17609.17;105632;1260;60007;-55
2023/12/26 06:57:15;;;;;;;9.30;2.30;;;;;;;-147.86;100.00;-17609.17;105640;1255;60408;-58
2023/12/26 06:59:48;;;;;;;6.10;2.20;;;;;;;-147.86;100.00;-17609.17;105672;1254;72900;-58
2023/12/26 07:02:15;;;;;;;3.30;1.90;;;;;;;-147.86;100.00;-17609.17;105675;1254;64577;-55
2023/12/26 07:04:46;;;;;;;4.00;2.10;;;;;;;-147.86;100.00;-17609.17;105671;1254;71234;-55
2023/12/26 07:07:13;;;;;;;5.40;1.90;;;;;;;-147.86;100.00;-17609.17;105664;1259;59733;-55
2023/12/26 07:09:40;;;;;;;8.80;3.00;;;;;;;-147.86;100.00;-17609.17;105714;1255;60293;-54
2023/12/26 07:12:07;;;;;;;7.20;2.50;;;;;;;-147.86;100.00;-17609.17;105672;1258;72977;-53
2023/12/26 07:14:34;;;;;;;6.20;2.40;;;;;;;-147.86;100.00;-17609.17;105784;1259;64636;-54
2023/12/26 07:17:01;;;;;;;7.60;2.60;;;;;;;-147.86;100.00;-17609.17;105700;1259;72592;-58
2023/12/26 07:19:28;;;;;;;12.10;2.10;;;;;;;-147.86;100.00;-17609.17;105663;1259;59720;-53
2023/12/26 07:21:56;;;;;;;8.20;2.40;;;;;;;-147.86;100.00;-17609.17;105742;1255;60195;-56
2023/12/26 07:24:23;;;;;;;8.50;2.90;;;;;;;-147.86;100.00;-17609.17;106059;1251;72990;-52
2023/12/26 07:26:50;;;;;;;4.20;2.10;;;;;;;-147.86;100.00;-17609.17;106043;1254;64528;-53
2023/12/26 07:29:16;;;;;;;9.40;2.20;;;;;;;-147.86;100.00;-17609.17;106066;1251;72590;-56
2023/12/26 07:31:43;;;;;;;6.30;2.50;;;;;;;-147.86;100.00;-17609.17;106014;1254;61283;-50
2023/12/26 07:34:10;;;;;;;7.20;2.00;;;;;;;-147.86;100.00;-17609.17;106032;1251;60647;-53
2023/12/26 07:36:38;;;;;;;6.70;2.60;;;;;;;-147.86;100.00;-17609.17;106099;1251;73135;-56
2023/12/26 07:39:05;;;;;;;9.10;2.50;;;;;;;-147.86;100.00;-17609.17;106061;1254;64410;-57
2023/12/26 07:41:32;;;;;;;6.30;2.50;;;;;;;-147.86;100.00;-17609.17;106011;1251;72433;-57
2023/12/26 07:44:00;;;;;;;12.00;2.20;;;;;;;-147.86;100.00;-17609.17;106039;1254;61029;-55
2023/12/26 07:46:27;;;;;;;8.70;2.40;;;;;;;-147.86;100.00;-17609.17;106063;1251;60297;-58
2023/12/26 07:48:54;;;;;;;5.80;2.30;;;;;;;-147.86;100.00;-17609.17;106045;1252;72888;-55
2023/12/26 07:51:24;;;;;;;7.70;2.40;;;;;;;-147.86;100.00;-17609.17;106088;1254;64726;-55
2023/12/26 07:53:51;;;;;;;9.10;2.10;;;;;;;-147.86;100.00;-17609.17;106070;1251;72637;-58
2023/12/26 07:56:18;;;;;;;7.80;2.10;;;;;;;-147.86;100.00;-17609.17;106121;1254;60931;-60
2023/12/26 07:58:46;;;;;;;5.90;2.30;;;;;;;-147.86;100.00;-17609.17;106073;1252;60264;-56
2023/12/26 08:01:13;;;;;;;6.40;2.00;;;;;;;-147.86;100.00;-17609.17;106097;1251;73020;-58
2023/12/26 08:03:40;;;;;;;7.70;2.20;;;;;;;-147.86;100.00;-17609.17;106102;1254;64452;-52
2023/12/26 08:06:07;;;;;;;8.70;2.10;;;;;;;-147.86;100.00;-17609.17;106071;1251;72753;-56
2023/12/26 08:08:35;;;;;;;7.90;2.40;;;;;;;-147.86;100.00;-17609.17;106096;1254;60951;-58
2023/12/26 08:11:03;;;;;;;8.80;2.40;;;;;;;-147.86;100.00;-17609.17;106045;1251;60300;-57
2023/12/26 08:13:29;;;;;;;10.70;2.30;;;;;;;-147.86;100.00;-17609.17;106044;1251;73087;-55
2023/12/26 08:15:57;;;;;;;7.20;2.00;;;;;;;-147.86;100.00;-17609.17;106083;1254;64810;-54
2023/12/26 08:18:24;;;;;;;7.50;2.30;;;;;;;-147.86;100.00;-17609.17;106079;1251;71144;-58
2023/12/26 08:20:51;;;;;;;8.50;2.30;;;;;;;-147.86;100.00;-17609.17;106099;1253;60044;-56
2023/12/26 08:23:18;;;;;;;5.30;2.20;;;;;;;-147.86;100.00;-17609.17;106051;1251;60003;-59
2023/12/26 08:25:45;;;;;;;7.60;2.40;;;;;;;-147.86;100.00;-17609.17;106051;1253;73389;-58
2023/12/26 08:28:12;;;;;;;9.00;2.20;;;;;;;-147.86;100.00;-17609.17;106097;1254;64689;-57
2023/12/26 08:30:39;;;;;;;5.40;2.10;;;;;;;-147.86;100.00;-17609.17;106087;1251;71745;-61
2023/12/26 08:33:07;;;;;;;6.10;2.20;;;;;;;-147.86;100.00;-17609.17;106057;1254;61231;-57
2023/12/26 08:35:34;;;;;;;5.70;1.70;;;;;;;-147.86;100.00;-17609.17;106103;1252;60206;-54
2023/12/26 08:38:01;;;;;;;8.10;2.10;;;;;;;-147.86;100.00;-17609.17;106088;1251;72817;-57
2023/12/26 08:40:28;;;;;;;7.10;2.20;;;;;;;-147.86;100.00;-17609.17;106097;1254;64653;-57
2023/12/26 08:42:55;;;;;;;6.30;2.40;;;;;;;-147.86;100.00;-17609.17;106101;1251;72602;-51
2023/12/26 08:45:23;;;;;;;6.10;2.10;;;;;;;-147.86;100.00;-17609.17;106104;1254;61001;-54
2023/12/26 08:47:52;;;;;;;7.80;2.30;;;;;;;-147.86;100.00;-17609.17;106096;1251;60094;-56
2023/12/26 08:50:19;;;;;;;5.90;1.90;;;;;;;-147.86;100.00;-17609.17;106041;1254;72828;-53
2023/12/26 08:52:46;;;;;;;9.80;2.50;;;;;;;-147.86;100.00;-17609.17;106072;1254;64594;-55
2023/12/26 08:55:14;;;;;;;7.80;2.10;;;;;;;-147.86;100.00;-17609.17;106096;1251;72574;-53
2023/12/26 08:57:42;;;;;;;11.30;2.40;;;;;;;-147.86;100.00;-17609.17;106057;1251;60948;-55
2023/12/26 09:00:12;;;;;;;7.90;1.80;;;;;;;-147.86;100.00;-17609.17;106068;1252;60508;-53
2023/12/26 09:02:40;;;;;;;11.00;2.00;;;;;;;-147.86;100.00;-17609.17;106072;1256;73789;-55
2023/12/26 09:05:23;;;;;;;6.00;1.80;;;;;;;-147.86;100.00;-17609.17;106028;1253;64617;-58
2023/12/26 09:07:50;;;;;;;7.70;2.00;;;;;;;-147.86;100.00;-17609.17;106057;1251;72662;-56
2023/12/26 09:10:17;;;;;;;4.60;1.50;;;;;;;-147.86;100.00;-17609.17;106060;1250;60510;-55
2023/12/26 09:12:44;;;;;;;4.80;2.10;;;;;;;-147.86;100.00;-17609.17;106113;1251;60539;-51
2023/12/26 09:15:11;;;;;;;5.10;1.60;;;;;;;-147.86;100.00;-17609.17;106065;1254;75283;-55
2023/12/26 09:17:39;;;;;;;4.90;1.50;;;;;;;-147.86;100.00;-17609.17;105991;1256;64397;-54
2023/12/26 09:20:09;;;;;;;6.10;1.80;;;;;;;-147.86;100.00;-17609.17;106068;1251;72412;-54
2023/12/26 09:22:36;;;;;;;12.80;2.40;;;;;;;-147.86;100.00;-17609.17;106100;1254;60532;-52
2023/12/26 09:25:05;;;;;;;6.20;2.40;;;;;;;-147.86;100.00;-17609.17;106017;1251;61522;-53
2023/12/26 09:27:32;;;;;;;4.30;1.80;;;;;;;-147.86;100.00;-17609.17;106051;1254;75044;-51
2023/12/26 09:29:59;;;;;;;6.80;1.90;;;;;;;-147.86;100.00;-17609.17;106076;1254;65275;-54
2023/12/26 09:32:27;;;;;;;5.90;1.60;;;;;;;-147.86;99.66;-17558.96;106077;1251;72634;-52
2023/12/26 09:34:53;;;;;;;9.20;1.80;;;;;;;-147.86;97.38;-15534.63;106057;1254;60530;-57
2023/12/26 09:37:21;;;;;;;5.90;1.60;;;;;;;-147.86;95.65;-11286.61;106092;1254;60468;-53
2023/12/26 09:39:48;;;;;;;4.90;1.60;;;;;;;-147.86;95.07;-9210.22;106055;1252;74289;-57
2023/12/26 09:42:15;;;;;;;6.50;1.70;;;;;;;-147.86;94.33;-5994.74;106086;1253;63804;-53
2023/12/26 09:44:42;;;;;;;5.30;1.40;;;;;;;-147.86;93.85;-4955.17;106041;1256;72430;-56
2023/12/26 09:47:09;;;;;;;3.70;1.50;;;;;;;-147.86;92.70;-1141.25;106051;1254;60415;-58
2023/12/26 09:49:36;;;;;;;5.30;1.50;;;;;;;-147.86;92.16;2229.73;105965;1251;60494;-55
2023/12/26 09:52:04;;;;;;;7.30;1.80;;;;;;;-147.86;91.40;5901.70;106049;1251;73808;-56
2023/12/26 09:54:31;;;;;;;4.10;1.40;;;;;;;-147.86;90.59;8434.78;105940;1256;64560;-56
2023/12/26 09:56:59;;;;;;;3.70;1.60;;;;;;;-147.86;88.74;17188.12;106022;1251;73899;-57
2023/12/26 09:59:26;;;;;;;6.10;1.60;;;;;;;-147.86;86.31;30302.49;106062;1254;60526;-54
2023/12/26 10:01:53;;;;;;;5.60;1.90;;;;;;;-147.86;86.51;35014.37;105944;1250;60535;-53
2023/12/26 10:04:20;;;;;;;7.70;1.60;;;;;;;-147.86;88.03;29316.18;106050;1251;73675;-54
2023/12/26 10:06:47;;;;;;;6.60;1.80;;;;;;;-147.86;87.06;30286.61;105973;1256;64830;-57
2023/12/26 10:09:14;;;;;;;5.70;1.60;;;;;;;-147.86;84.59;39106.73;106085;1254;72615;-53
2023/12/26 10:11:43;;;;;;;5.40;1.40;;;;;;;-147.86;83.86;41751.39;106023;1253;60575;-55
2023/12/26 10:14:10;;;;;;;6.70;1.60;;;;;;;-147.86;86.39;38832.10;106084;1254;60376;-50
2023/12/26 10:16:37;;;;;;;2.60;1.30;;;;;;;-147.86;86.46;36777.52;106064;1251;72793;-49
2023/12/26 10:19:10;;;;;;;5.60;1.80;;;;;;;-147.86;86.43;36159.49;106077;1254;64916;-54
2023/12/26 10:21:40;;;;;;;5.70;1.30;;;;;;;-147.86;85.97;38287.80;106036;1254;72445;-55
2023/12/26 10:24:10;;;;;;;7.10;1.70;;;;;;;-147.86;87.87;30270.95;106058;1254;60399;-54
2023/12/26 10:26:38;;;;;;;7.80;1.60;;;;;;;-147.86;87.98;24862.65;106069;1254;60527;-55
2023/12/26 10:29:05;;;;;;;4.30;1.20;;;;;;;-147.86;88.04;23266.59;106000;1252;74287;-53
2023/12/26 10:31:32;;;;;;;2.80;0.90;;;;;;;-147.86;86.68;28479.94;105986;1256;66162;-55
2023/12/26 10:34:17;;;;;;;5.60;2.10;;;;;;;-147.86;86.08;33229.10;106009;1254;72027;-52
2023/12/26 10:36:46;;;;;;;8.40;1.80;;;;;;;-147.86;86.76;29264.64;106011;1251;60482;-50
2023/12/26 10:39:13;;;;;;;7.00;2.00;;;;;;;-147.86;86.88;28606.05;106050;1254;60709;-50
2023/12/26 10:41:44;;;;;;;7.90;1.60;;;;;;;-147.86;88.24;21871.77;106057;1252;75088;-55
2023/12/26 10:44:15;;;;;;;6.40;1.80;;;;;;;-147.86;89.00;15047.43;106051;1254;64577;-53
2023/12/26 10:46:43;;;;;;;6.30;2.00;;;;;;;-147.86;90.21;8335.53;106046;1250;72467;-57
2023/12/26 10:49:13;;;;;;;6.00;1.80;;;;;;;-147.86;91.86;-199.37;106026;1254;60415;-57
2023/12/26 10:51:43;;;;;;;6.70;2.00;;;;;;;-147.86;92.39;-4707.69;105868;1255;61825;-54
2023/12/26 10:54:17;;;;;;;6.40;2.20;;;;;;;-147.86;93.26;-8517.93;105881;1254;75159;-58
2023/12/26 10:56:46;;;;;;;7.90;1.90;;;;;;;-147.86;93.67;-10298.06;106043;1254;66420;-55